Time;durP1;ratioP1;P1;durP2;ratioP2;P2;SDS_P1;SDS_P2;PMS_P1;PMS_P2;Temp;Humidity;BMP_temperature;BMP_pressure;BME280_temperature;BME280_humidity;BME280_pressure;Samples;Min_cycle;Max_cycle;Signal;HPM_P1;HPM_P2
2024/01/10 00:01:06;;;;;;;3.07;2.97;;;15.50;67.00;;;;;;5046945;28;43410;-71
2024/01/10 00:03:34;;;;;;;3.30;3.20;;;15.50;66.90;;;;;;5061208;28;43608;-71
2024/01/10 00:06:04;;;;;;;3.10;3.00;;;15.50;67.00;;;;;;5034704;28;44070;-76
2024/01/10 00:08:32;;;;;;;3.33;3.23;;;15.50;67.00;;;;;;5047333;28;43988;-71
2024/01/10 00:11:03;;;;;;;3.27;3.17;;;15.50;67.10;;;;;;5034543;28;43591;-71
2024/01/10 00:13:32;;;;;;;2.83;2.83;;;15.50;67.20;;;;;;5044076;28;43970;-71
2024/01/10 00:16:02;;;;;;;3.23;3.13;;;15.50;67.20;;;;;;5040566;28;43476;-72
2024/01/10 00:18:31;;;;;;;3.60;3.50;;;15.40;67.20;;;;;;5039641;28;43830;-71
2024/01/10 00:20:59;;;;;;;3.30;3.20;;;15.40;67.30;;;;;;5047565;28;44383;-71
2024/01/10 00:23:28;;;;;;;3.20;3.10;;;15.40;67.30;;;;;;5043995;28;43584;-71
2024/01/10 00:25:56;;;;;;;3.43;3.33;;;15.40;67.30;;;;;;5042884;28;44239;-71
2024/01/10 00:28:27;;;;;;;2.77;2.70;;;15.40;67.30;;;;;;5055821;28;43508;-69
2024/01/10 00:30:55;;;;;;;3.20;3.10;;;15.40;67.40;;;;;;5073433;28;43540;-69
2024/01/10 00:33:23;;;;;;;3.97;3.77;;;15.40;67.40;;;;;;5065085;27;44021;-69
2024/01/10 00:35:51;;;;;;;3.30;3.20;;;15.40;67.60;;;;;;5062340;28;43416;-70
2024/01/10 00:38:21;;;;;;;3.60;3.50;;;15.50;67.30;;;;;;5066196;28;43485;-69
2024/01/10 00:40:51;;;;;;;3.20;3.10;;;15.60;67.00;;;;;;5069906;27;43414;-69
2024/01/10 00:43:19;;;;;;;3.50;3.40;;;15.80;66.90;;;;;;5068799;27;45760;-69
2024/01/10 00:45:47;;;;;;;3.20;3.10;;;16.00;66.50;;;;;;5064500;27;43362;-69
2024/01/10 00:48:17;;;;;;;3.30;3.20;;;16.10;66.00;;;;;;5063681;28;43399;-69
2024/01/10 00:50:45;;;;;;;3.17;3.07;;;16.30;65.50;;;;;;5071094;28;43367;-69
2024/01/10 00:53:14;;;;;;;3.37;3.27;;;16.40;65.10;;;;;;5063353;28;43591;-70
2024/01/10 00:55:42;;;;;;;3.23;3.13;;;16.50;64.70;;;;;;5062312;28;43415;-69
2024/01/10 00:58:16;;;;;;;3.60;3.50;;;16.60;64.50;;;;;;5062609;28;43768;-69
2024/01/10 01:00:44;;;;;;;3.37;3.27;;;16.60;64.10;;;;;;5059818;28;44593;-70
2024/01/10 01:03:12;;;;;;;2.90;2.90;;;16.60;64.10;;;;;;5069867;27;43531;-69
2024/01/10 01:05:41;;;;;;;3.40;3.30;;;16.50;64.00;;;;;;5067876;27;43352;-69
2024/01/10 01:08:09;;;;;;;3.93;3.83;;;16.40;64.30;;;;;;5070809;28;43404;-69
2024/01/10 01:10:37;;;;;;;3.20;3.10;;;16.20;64.40;;;;;;5057221;28;43822;-70
2024/01/10 01:13:05;;;;;;;3.47;3.37;;;16.10;64.80;;;;;;5068833;28;44316;-69
2024/01/10 01:15:37;;;;;;;3.20;3.10;;;15.90;65.70;;;;;;5062270;28;45090;-70
2024/01/10 01:18:05;;;;;;;3.80;3.60;;;15.90;65.80;;;;;;5067294;27;43408;-70
2024/01/10 01:20:34;;;;;;;3.30;3.20;;;15.80;65.70;;;;;;5067380;27;43387;-70
2024/01/10 01:23:02;;;;;;;3.40;3.30;;;15.80;65.90;;;;;;5068770;28;45288;-69
2024/01/10 01:25:30;;;;;;;3.40;3.30;;;15.70;66.00;;;;;;5067646;27;44836;-69
2024/01/10 01:27:58;;;;;;;3.20;3.10;;;15.70;66.20;;;;;;5070941;27;43417;-70
2024/01/10 01:30:26;;;;;;;3.10;3.00;;;15.60;66.50;;;;;;5063308;27;43433;-70
2024/01/10 01:32:56;;;;;;;3.27;3.17;;;15.60;66.70;;;;;;5068566;27;45770;-70
2024/01/10 01:35:24;;;;;;;3.30;3.20;;;15.60;66.60;;;;;;5062325;28;43395;-69
2024/01/10 01:37:55;;;;;;;3.43;3.33;;;15.60;66.60;;;;;;5045910;28;43475;-71
2024/01/10 01:40:23;;;;;;;3.30;3.20;;;15.50;66.60;;;;;;5045256;28;43522;-71
2024/01/10 01:42:51;;;;;;;3.20;3.10;;;15.50;66.70;;;;;;5041798;28;43579;-71
2024/01/10 01:45:19;;;;;;;3.27;3.17;;;15.50;66.80;;;;;;5031343;28;43887;-71
2024/01/10 01:47:47;;;;;;;3.37;3.27;;;15.50;67.00;;;;;;5035753;28;43417;-72
2024/01/10 01:50:16;;;;;;;3.17;3.10;;;15.50;67.30;;;;;;5033914;28;44053;-72
2024/01/10 01:52:44;;;;;;;3.77;3.67;;;15.60;67.40;;;;;;5040111;28;43861;-71
2024/01/10 01:55:12;;;;;;;3.40;3.30;;;15.60;66.90;;;;;;5043206;28;45177;-71
2024/01/10 01:57:40;;;;;;;3.30;3.20;;;15.70;66.40;;;;;;5037524;28;43606;-71
2024/01/10 02:00:10;;;;;;;3.60;3.50;;;15.70;66.90;;;;;;5038524;28;43981;-71
2024/01/10 02:02:38;;;;;;;3.40;3.30;;;15.70;66.30;;;;;;5046356;28;44036;-71
2024/01/10 02:05:06;;;;;;;3.43;3.33;;;15.60;66.60;;;;;;5035190;28;43415;-73
2024/01/10 02:07:36;;;;;;;3.23;3.13;;;15.60;66.60;;;;;;5040171;28;43426;-71
2024/01/10 02:10:04;;;;;;;3.80;3.70;;;15.60;66.60;;;;;;5039313;28;43446;-71
2024/01/10 02:12:33;;;;;;;3.33;3.23;;;15.60;66.60;;;;;;5039520;28;43624;-71
2024/01/10 02:15:01;;;;;;;3.37;3.27;;;15.50;66.50;;;;;;5046039;28;43418;-71
2024/01/10 02:17:30;;;;;;;3.53;3.43;;;15.50;66.60;;;;;;5043009;28;43369;-71
2024/01/10 02:20:09;;;;;;;3.40;3.30;;;15.50;66.70;;;;;;5043831;28;43546;-71
2024/01/10 02:22:38;;;;;;;3.53;3.43;;;15.50;67.10;;;;;;5049821;28;45957;-72
2024/01/10 02:25:09;;;;;;;3.60;3.50;;;15.40;66.90;;;;;;5033110;28;43432;-72
2024/01/10 02:27:37;;;;;;;3.30;3.20;;;15.40;66.80;;;;;;5033693;28;43470;-72
2024/01/10 02:30:06;;;;;;;3.30;3.20;;;15.40;66.80;;;;;;5038999;28;43463;-72
2024/01/10 02:32:34;;;;;;;3.90;3.70;;;15.40;66.90;;;;;;5035473;28;43730;-72
2024/01/10 02:35:02;;;;;;;3.30;3.20;;;15.40;66.90;;;;;;5044701;28;43461;-72
2024/01/10 02:37:30;;;;;;;3.40;3.30;;;15.40;67.00;;;;;;5047237;28;43530;-71
2024/01/10 02:39:58;;;;;;;3.70;3.60;;;15.40;67.10;;;;;;5039809;28;43538;-72
2024/01/10 02:42:30;;;;;;;3.70;3.60;;;15.40;67.40;;;;;;5036125;28;44077;-72
2024/01/10 02:44:58;;;;;;;3.57;3.47;;;15.50;67.40;;;;;;5031922;28;43359;-72
2024/01/10 02:47:26;;;;;;;3.50;3.40;;;15.60;66.90;;;;;;5053578;28;43489;-70
2024/01/10 02:49:56;;;;;;;3.40;3.30;;;15.60;66.50;;;;;;5062026;28;43966;-70
2024/01/10 02:52:24;;;;;;;3.70;3.60;;;15.60;66.40;;;;;;5067164;28;43951;-69
2024/01/10 02:54:53;;;;;;;3.80;3.70;;;15.60;66.40;;;;;;5061876;28;43471;-69
2024/01/10 02:57:21;;;;;;;3.57;3.47;;;15.60;66.70;;;;;;5069163;27;43499;-70
2024/01/10 02:59:50;;;;;;;3.77;3.67;;;15.50;66.70;;;;;;5063808;27;43445;-70
2024/01/10 03:02:18;;;;;;;3.67;3.57;;;15.50;66.60;;;;;;5065345;27;45826;-70
2024/01/10 03:04:46;;;;;;;3.47;3.37;;;15.50;66.60;;;;;;5069500;27;44397;-70
2024/01/10 03:07:14;;;;;;;3.63;3.53;;;15.50;66.70;;;;;;5060642;28;43389;-70
2024/01/10 03:09:42;;;;;;;3.50;3.40;;;15.50;66.80;;;;;;5056328;28;43518;-69
2024/01/10 03:12:11;;;;;;;3.70;3.60;;;15.40;66.70;;;;;;5065891;27;43623;-68
2024/01/10 03:14:39;;;;;;;3.43;3.33;;;15.40;67.00;;;;;;5062609;27;43481;-69
2024/01/10 03:17:09;;;;;;;3.37;3.27;;;15.40;67.00;;;;;;5065832;27;43444;-69
2024/01/10 03:19:42;;;;;;;3.60;3.50;;;15.40;67.00;;;;;;5071910;28;43849;-68
2024/01/10 03:22:10;;;;;;;3.80;3.60;;;15.40;67.00;;;;;;5073906;27;43704;-69
2024/01/10 03:24:38;;;;;;;3.40;3.30;;;15.40;67.00;;;;;;5074011;27;43485;-70
2024/01/10 03:27:06;;;;;;;3.50;3.40;;;15.30;66.90;;;;;;5062035;28;44322;-70
2024/01/10 03:29:35;;;;;;;3.70;3.60;;;15.30;67.00;;;;;;5068457;28;43451;-70
2024/01/10 03:32:03;;;;;;;3.63;3.53;;;15.30;67.10;;;;;;5065341;28;43592;-70
2024/01/10 03:34:33;;;;;;;3.87;3.77;;;15.30;67.40;;;;;;5071436;28;43470;-70
2024/01/10 03:37:02;;;;;;;3.90;3.80;;;15.30;67.40;;;;;;5067892;28;43355;-69
2024/01/10 03:39:31;;;;;;;4.27;4.13;;;15.40;67.00;;;;;;5066214;28;43311;-69
2024/01/10 03:41:59;;;;;;;3.33;3.23;;;15.50;66.70;;;;;;5066324;28;43608;-70
2024/01/10 03:44:27;;;;;;;3.73;3.63;;;15.50;66.60;;;;;;5061770;27;43384;-70
2024/01/10 03:47:00;;;;;;;4.00;3.90;;;15.50;66.70;;;;;;5071286;27;43537;-70
2024/01/10 03:49:28;;;;;;;3.90;3.80;;;15.40;66.70;;;;;;5068669;28;43487;-70
2024/01/10 03:51:58;;;;;;;3.57;3.47;;;15.40;67.70;;;;;;5074374;28;43930;-69
2024/01/10 03:54:26;;;;;;;3.93;3.83;;;15.40;66.90;;;;;;5066134;28;44722;-70
2024/01/10 03:56:54;;;;;;;3.67;3.57;;;15.40;66.80;;;;;;5058750;27;43468;-71
2024/01/10 03:59:22;;;;;;;3.80;3.70;;;15.40;66.90;;;;;;5048312;28;43412;-72
2024/01/10 04:01:50;;;;;;;3.80;3.70;;;15.40;66.90;;;;;;5039106;28;43931;-72
2024/01/10 04:04:18;;;;;;;4.10;4.00;;;15.40;67.00;;;;;;5039249;28;44891;-72
2024/01/10 04:06:49;;;;;;;3.97;3.87;;;15.30;66.90;;;;;;5033016;28;43387;-72
2024/01/10 04:09:18;;;;;;;3.87;3.70;;;15.30;67.00;;;;;;5046753;28;43575;-71
2024/01/10 04:11:47;;;;;;;3.50;3.40;;;15.30;67.00;;;;;;5034085;28;43728;-72
2024/01/10 04:14:16;;;;;;;3.67;3.57;;;15.30;66.90;;;;;;5039946;28;43517;-72
2024/01/10 04:16:48;;;;;;;3.80;3.70;;;15.30;66.90;;;;;;5041098;28;43786;-71
2024/01/10 04:19:16;;;;;;;3.83;3.73;;;15.30;66.90;;;;;;5043149;28;43435;-71
2024/01/10 04:21:44;;;;;;;3.90;3.80;;;15.30;66.90;;;;;;5047196;28;43938;-71
2024/01/10 04:24:12;;;;;;;4.10;4.00;;;15.30;66.90;;;;;;5042699;28;44423;-71
2024/01/10 04:26:41;;;;;;;4.50;4.30;;;15.30;67.10;;;;;;5039819;28;43419;-72
2024/01/10 04:29:10;;;;;;;3.77;3.67;;;15.40;67.30;;;;;;5037821;28;44053;-72
2024/01/10 04:31:38;;;;;;;3.77;3.67;;;15.50;67.10;;;;;;5040438;28;43793;-71
2024/01/10 04:34:06;;;;;;;3.77;3.67;;;15.50;66.60;;;;;;5047036;28;45018;-71
2024/01/10 04:36:34;;;;;;;3.30;3.20;;;15.50;66.40;;;;;;5031759;28;43446;-71
2024/01/10 04:39:02;;;;;;;3.50;3.40;;;15.50;66.40;;;;;;5052999;28;43473;-71
2024/01/10 04:41:30;;;;;;;3.67;3.57;;;15.50;66.40;;;;;;5040341;28;43885;-71
2024/01/10 04:44:00;;;;;;;3.80;3.70;;;15.50;66.50;;;;;;5042555;28;43488;-71
2024/01/10 04:46:28;;;;;;;3.83;3.73;;;15.50;66.70;;;;;;5048178;28;43520;-71
2024/01/10 04:48:56;;;;;;;3.50;3.40;;;15.50;66.60;;;;;;5035980;28;43405;-71
2024/01/10 04:51:24;;;;;;;3.60;3.50;;;15.50;66.60;;;;;;5038657;28;44172;-71
2024/01/10 04:53:52;;;;;;;4.23;4.13;;;15.40;66.60;;;;;;5032583;28;43520;-71
2024/01/10 04:56:20;;;;;;;3.60;3.50;;;15.40;66.70;;;;;;5033777;28;43519;-71
2024/01/10 04:58:48;;;;;;;4.23;4.07;;;15.40;66.70;;;;;;5038972;28;43616;-72
2024/01/10 05:01:18;;;;;;;3.90;3.80;;;15.40;66.70;;;;;;5045173;28;43927;-71
2024/01/10 05:03:46;;;;;;;4.07;3.97;;;15.40;67.00;;;;;;5039195;28;44996;-71
2024/01/10 05:06:14;;;;;;;4.43;4.33;;;15.40;67.80;;;;;;5045005;28;43378;-71
2024/01/10 05:08:42;;;;;;;3.80;3.70;;;15.50;66.70;;;;;;5043185;28;43554;-71
2024/01/10 05:11:10;;;;;;;3.80;3.70;;;15.50;66.50;;;;;;5043566;28;44024;-73
2024/01/10 05:13:39;;;;;;;4.17;4.07;;;15.50;66.40;;;;;;5043144;28;43482;-71
2024/01/10 05:16:07;;;;;;;3.77;3.67;;;15.50;66.50;;;;;;5039895;28;43466;-71
2024/01/10 05:18:36;;;;;;;4.10;4.00;;;15.50;66.60;;;;;;5034289;28;43440;-70
2024/01/10 05:21:06;;;;;;;3.83;3.73;;;15.50;66.70;;;;;;5034351;28;43615;-72
2024/01/10 05:23:35;;;;;;;3.83;3.73;;;15.40;66.70;;;;;;5034495;28;43550;-71
2024/01/10 05:26:04;;;;;;;3.80;3.70;;;15.40;66.60;;;;;;5035881;28;43456;-72
2024/01/10 05:28:32;;;;;;;3.77;3.67;;;15.40;66.70;;;;;;5036817;28;43351;-71
2024/01/10 05:31:00;;;;;;;3.97;3.87;;;15.40;66.60;;;;;;5045696;28;43789;-71
2024/01/10 05:33:28;;;;;;;3.93;3.83;;;15.40;66.60;;;;;;5035600;28;43498;-72
2024/01/10 05:35:59;;;;;;;4.03;3.93;;;15.40;66.70;;;;;;5037348;28;43425;-71
2024/01/10 05:38:27;;;;;;;4.07;3.97;;;15.40;66.70;;;;;;5047089;28;43407;-72
2024/01/10 05:40:55;;;;;;;4.07;3.97;;;15.40;66.90;;;;;;5040927;28;43809;-71
2024/01/10 05:43:23;;;;;;;4.27;4.17;;;15.40;67.00;;;;;;5032326;28;43452;-72
2024/01/10 05:45:51;;;;;;;4.07;3.87;;;15.50;66.40;;;;;;5039569;28;43914;-72
2024/01/10 05:48:19;;;;;;;3.80;3.70;;;15.50;66.30;;;;;;5041347;28;43476;-71
2024/01/10 05:50:50;;;;;;;3.97;3.83;;;15.50;66.20;;;;;;5038694;28;43862;-71
2024/01/10 05:53:20;;;;;;;3.80;3.70;;;15.50;66.30;;;;;;5038556;28;44069;-71
2024/01/10 05:55:48;;;;;;;4.40;4.20;;;15.50;66.30;;;;;;5030070;28;43405;-72
2024/01/10 05:58:16;;;;;;;4.17;4.07;;;15.50;66.50;;;;;;5042262;28;43605;-71
2024/01/10 06:00:44;;;;;;;3.93;3.83;;;15.50;66.50;;;;;;5033311;28;43784;-71
2024/01/10 06:03:13;;;;;;;4.53;4.37;;;15.50;66.50;;;;;;5041095;28;43412;-71
2024/01/10 06:05:41;;;;;;;4.10;4.00;;;15.40;66.40;;;;;;5041886;28;43463;-71
2024/01/10 06:08:09;;;;;;;4.20;4.10;;;15.40;66.50;;;;;;5036406;28;43840;-72
2024/01/10 06:10:39;;;;;;;4.20;4.10;;;15.40;66.50;;;;;;5041639;28;43843;-73
2024/01/10 06:13:07;;;;;;;4.20;4.10;;;15.40;66.50;;;;;;5046616;28;43386;-72
2024/01/10 06:15:35;;;;;;;4.37;4.17;;;15.40;66.70;;;;;;5043970;28;43446;-71
2024/01/10 06:18:03;;;;;;;4.10;4.00;;;15.30;66.60;;;;;;5035084;28;44126;-70
2024/01/10 06:20:31;;;;;;;4.10;4.00;;;15.40;66.60;;;;;;5039299;28;45958;-70
2024/01/10 06:23:00;;;;;;;4.00;3.90;;;15.30;66.60;;;;;;5049685;28;43929;-71
2024/01/10 06:25:30;;;;;;;4.00;3.90;;;15.30;66.60;;;;;;5051546;28;43399;-71
2024/01/10 06:27:59;;;;;;;4.20;4.00;;;15.30;66.70;;;;;;5033779;28;43419;-73
2024/01/10 06:30:28;;;;;;;4.30;4.10;;;15.30;66.70;;;;;;5037179;28;43599;-70
2024/01/10 06:32:56;;;;;;;4.40;4.30;;;15.30;66.70;;;;;;5036650;28;45045;-71
2024/01/10 06:35:24;;;;;;;4.30;4.10;;;15.30;67.00;;;;;;5036145;28;43457;-71
2024/01/10 06:37:52;;;;;;;4.70;4.50;;;15.30;66.90;;;;;;5048065;28;43946;-71
2024/01/10 06:40:21;;;;;;;4.40;4.20;;;15.40;66.60;;;;;;5036984;28;43853;-71
2024/01/10 06:42:49;;;;;;;4.10;4.00;;;15.50;66.40;;;;;;5041019;28;43452;-71
2024/01/10 06:45:21;;;;;;;4.73;4.57;;;15.50;66.40;;;;;;5033827;28;43356;-71
2024/01/10 06:47:49;;;;;;;4.23;4.07;;;15.50;66.30;;;;;;5035699;28;43446;-71
2024/01/10 06:50:19;;;;;;;4.13;3.93;;;15.40;66.30;;;;;;5038623;28;43849;-71
2024/01/10 06:52:48;;;;;;;4.47;4.37;;;15.40;66.40;;;;;;5040186;28;43829;-71
2024/01/10 06:55:16;;;;;;;4.27;4.17;;;15.40;66.50;;;;;;5037762;28;43426;-71
2024/01/10 06:57:44;;;;;;;4.17;4.07;;;15.40;66.50;;;;;;5032086;28;43535;-71
2024/01/10 07:00:14;;;;;;;4.13;4.03;;;15.50;66.50;;;;;;5030430;28;43856;-71
2024/01/10 07:02:44;;;;;;;4.20;4.10;;;15.40;66.40;;;;;;5044805;28;44752;-71
2024/01/10 07:05:12;;;;;;;4.23;4.10;;;15.40;66.40;;;;;;5033204;28;43853;-70
2024/01/10 07:07:40;;;;;;;4.17;3.97;;;15.40;66.50;;;;;;5035161;28;43449;-71
2024/01/10 07:10:08;;;;;;;4.40;4.30;;;15.40;66.60;;;;;;5048591;28;43624;-71
2024/01/10 07:12:36;;;;;;;4.07;3.97;;;15.40;66.80;;;;;;5032232;28;43568;-71
2024/01/10 07:15:05;;;;;;;4.50;4.30;;;15.50;66.80;;;;;;5047132;28;43463;-70
2024/01/10 07:17:34;;;;;;;4.43;4.33;;;15.50;66.30;;;;;;5038288;28;43325;-71
2024/01/10 07:20:05;;;;;;;4.30;4.10;;;15.50;66.20;;;;;;5034242;28;43593;-71
2024/01/10 07:22:33;;;;;;;4.13;4.03;;;15.50;66.10;;;;;;5044027;28;43830;-71
2024/01/10 07:25:01;;;;;;;4.47;4.30;;;15.50;66.90;;;;;;5035443;28;43438;-71
2024/01/10 07:27:29;;;;;;;4.60;4.40;;;15.50;66.30;;;;;;5040416;28;43510;-70
2024/01/10 07:29:57;;;;;;;4.20;4.00;;;15.40;66.40;;;;;;5067522;28;43835;-69
2024/01/10 07:32:25;;;;;;;3.90;3.80;;;15.40;66.40;;;;;;5059356;28;43394;-69
2024/01/10 07:34:54;;;;;;;4.70;4.50;;;15.40;66.30;;;;;;5066452;27;43478;-68
2024/01/10 07:37:23;;;;;;;4.50;4.30;;;15.40;66.40;;;;;;5065711;28;43442;-69
2024/01/10 07:39:51;;;;;;;4.10;4.00;;;15.40;66.50;;;;;;5067318;27;43599;-69
2024/01/10 07:42:21;;;;;;;4.57;4.37;;;15.40;66.50;;;;;;5070760;28;44844;-70
2024/01/10 07:44:49;;;;;;;4.53;4.40;;;15.30;66.50;;;;;;5058487;28;43397;-70
2024/01/10 07:47:20;;;;;;;4.60;4.40;;;15.30;66.60;;;;;;5058296;28;43411;-70
2024/01/10 07:49:48;;;;;;;4.50;4.40;;;15.30;66.80;;;;;;5057167;27;43714;-70
2024/01/10 07:52:17;;;;;;;4.60;4.40;;;15.40;66.80;;;;;;5064494;27;43412;-69
2024/01/10 07:54:46;;;;;;;5.07;4.87;;;15.50;66.40;;;;;;5062039;28;43416;-68
2024/01/10 07:57:14;;;;;;;4.43;4.33;;;15.50;66.30;;;;;;5072518;27;43432;-69
2024/01/10 07:59:43;;;;;;;4.37;4.20;;;15.50;66.30;;;;;;5062574;27;43773;-69
2024/01/10 08:02:11;;;;;;;4.60;4.40;;;15.40;66.30;;;;;;5059672;28;43447;-69
2024/01/10 08:04:39;;;;;;;4.53;4.40;;;15.40;66.30;;;;;;5068674;27;43463;-68
2024/01/10 08:07:07;;;;;;;4.80;4.60;;;15.40;66.50;;;;;;5068980;27;43405;-69
2024/01/10 08:09:36;;;;;;;4.83;4.63;;;15.40;66.50;;;;;;5062669;27;43948;-70
2024/01/10 08:12:07;;;;;;;4.80;4.60;;;15.40;66.50;;;;;;5075096;28;44965;-69
2024/01/10 08:14:35;;;;;;;4.70;4.50;;;15.40;66.60;;;;;;5069701;28;43463;-69
2024/01/10 08:17:03;;;;;;;4.73;4.53;;;15.40;66.60;;;;;;5064248;28;43831;-69
2024/01/10 08:19:31;;;;;;;4.70;4.50;;;15.40;66.70;;;;;;5066844;27;45735;-69
2024/01/10 08:21:59;;;;;;;4.60;4.40;;;15.40;66.70;;;;;;5071377;27;43469;-69
2024/01/10 08:24:28;;;;;;;4.37;4.20;;;15.30;66.60;;;;;;5069700;27;43411;-69
2024/01/10 08:26:56;;;;;;;4.73;4.53;;;15.30;66.60;;;;;;5067662;28;43370;-69
2024/01/10 08:29:30;;;;;;;4.23;4.07;;;15.40;66.60;;;;;;5072800;27;43624;-68
2024/01/10 08:31:58;;;;;;;4.80;4.60;;;15.30;66.60;;;;;;5066904;27;43717;-69
2024/01/10 08:34:26;;;;;;;4.90;4.70;;;15.30;66.60;;;;;;5066501;28;43440;-69
2024/01/10 08:36:54;;;;;;;4.83;4.60;;;15.30;66.60;;;;;;5066090;27;43437;-70
2024/01/10 08:39:24;;;;;;;5.03;4.77;;;15.30;66.60;;;;;;5052688;28;43963;-70
2024/01/10 08:41:52;;;;;;;4.73;4.53;;;15.30;66.80;;;;;;5057910;28;43349;-70
2024/01/10 08:44:21;;;;;;;4.53;4.33;;;15.30;66.90;;;;;;5045161;28;43408;-70
2024/01/10 08:46:51;;;;;;;4.67;4.47;;;15.40;66.80;;;;;;5054088;28;43416;-71
2024/01/10 08:49:19;;;;;;;4.60;4.40;;;15.40;66.30;;;;;;5050152;28;44910;-71
2024/01/10 08:51:47;;;;;;;4.20;4.10;;;15.50;66.20;;;;;;5058316;28;43812;-71
2024/01/10 08:54:19;;;;;;;4.90;4.70;;;15.50;66.20;;;;;;5056404;28;44203;-70
2024/01/10 08:56:47;;;;;;;5.00;4.80;;;15.50;66.30;;;;;;5051270;28;43537;-70
2024/01/10 08:59:15;;;;;;;5.03;4.73;;;15.50;66.40;;;;;;5057054;28;43676;-71
2024/01/10 09:01:43;;;;;;;5.13;4.87;;;15.40;66.40;;;;;;5059675;28;43429;-71
2024/01/10 09:04:13;;;;;;;5.03;4.80;;;15.40;66.40;;;;;;5058419;28;43447;-71
2024/01/10 09:06:41;;;;;;;4.70;4.50;;;15.40;66.50;;;;;;5060031;28;43451;-73
2024/01/10 09:09:11;;;;;;;4.60;4.40;;;15.40;66.50;;;;;;5049275;28;43585;-71
2024/01/10 09:11:39;;;;;;;5.00;4.80;;;15.40;66.60;;;;;;5063999;28;44315;-71
2024/01/10 09:14:09;;;;;;;4.70;4.50;;;15.30;66.60;;;;;;5053665;28;43472;-72
2024/01/10 09:16:38;;;;;;;4.40;4.20;;;15.30;66.60;;;;;;5045066;28;43495;-71
2024/01/10 09:19:06;;;;;;;4.67;4.47;;;15.30;66.70;;;;;;5046956;28;43618;-71
2024/01/10 09:21:40;;;;;;;4.93;4.73;;;15.30;66.70;;;;;;5062040;28;43458;-71
2024/01/10 09:24:10;;;;;;;4.83;4.63;;;15.30;66.60;;;;;;5051777;28;43466;-71
2024/01/10 09:26:53;;;;;;;4.90;4.70;;;15.30;66.60;;;;;;5054313;28;43463;-70
2024/01/10 09:29:21;;;;;;;5.10;4.87;;;15.30;66.70;;;;;;5056203;28;43671;-70
2024/01/10 09:31:50;;;;;;;5.00;4.80;;;15.30;66.70;;;;;;5048754;28;44659;-71
2024/01/10 09:34:18;;;;;;;4.60;4.50;;;15.30;66.70;;;;;;5050337;28;43507;-71
2024/01/10 09:36:48;;;;;;;4.83;4.63;;;15.30;66.80;;;;;;5050268;28;43534;-71
2024/01/10 09:39:16;;;;;;;4.77;4.57;;;15.30;66.90;;;;;;5051659;28;44032;-70
2024/01/10 09:41:48;;;;;;;4.77;4.63;;;15.40;66.80;;;;;;5055908;28;43425;-71
2024/01/10 09:44:17;;;;;;;4.80;4.60;;;15.50;66.40;;;;;;5053118;28;44483;-71
2024/01/10 09:46:48;;;;;;;4.90;4.70;;;15.50;66.20;;;;;;5050854;28;43559;-71
2024/01/10 09:49:17;;;;;;;4.90;4.70;;;15.50;66.90;;;;;;5047394;28;45005;-71
2024/01/10 09:51:45;;;;;;;5.30;5.10;;;15.50;66.30;;;;;;5039727;28;43419;-76
2024/01/10 09:54:14;;;;;;;5.23;5.03;;;15.40;66.30;;;;;;5032122;28;43786;-71
2024/01/10 09:56:45;;;;;;;5.00;4.70;;;15.40;66.40;;;;;;5055308;28;43461;-71
2024/01/10 09:59:13;;;;;;;5.00;4.80;;;15.40;66.40;;;;;;5040329;28;45495;-71
2024/01/10 10:01:41;;;;;;;4.67;4.57;;;15.40;66.40;;;;;;5039441;28;43857;-71
2024/01/10 10:04:12;;;;;;;4.63;4.53;;;15.40;66.50;;;;;;5037426;28;43430;-71
2024/01/10 10:06:40;;;;;;;4.43;4.30;;;15.40;66.60;;;;;;5037802;28;43478;-71
2024/01/10 10:09:09;;;;;;;4.80;4.60;;;15.40;66.60;;;;;;5043573;28;44066;-71
2024/01/10 10:11:38;;;;;;;5.00;4.70;;;15.30;66.60;;;;;;5037862;28;43350;-71
2024/01/10 10:14:16;;;;;;;4.83;4.63;;;15.30;66.70;;;;;;5034813;28;43957;-71
2024/01/10 10:16:44;;;;;;;5.07;4.87;;;15.30;66.60;;;;;;5031258;28;43454;-71
2024/01/10 10:19:13;;;;;;;4.70;4.50;;;15.30;66.60;;;;;;5041355;28;43860;-70
2024/01/10 10:21:51;;;;;;;4.77;4.57;;;15.30;67.40;;;;;;5041624;28;43515;-71
2024/01/10 10:24:19;;;;;;;4.57;4.47;;;15.30;66.60;;;;;;5042501;28;43493;-71
2024/01/10 10:26:54;;;;;;;5.10;4.87;;;15.30;66.70;;;;;;5043986;28;43472;-71
2024/01/10 10:29:23;;;;;;;4.60;4.40;;;15.30;66.80;;;;;;5038253;28;43900;-71
2024/01/10 10:31:51;;;;;;;5.07;4.87;;;15.30;66.80;;;;;;5039402;28;45878;-71
2024/01/10 10:34:22;;;;;;;5.40;5.10;;;15.30;66.90;;;;;;5039330;28;43402;-71
2024/01/10 10:36:50;;;;;;;5.00;4.80;;;15.40;66.70;;;;;;5037489;28;43383;-71
2024/01/10 10:39:18;;;;;;;4.70;4.53;;;15.50;66.40;;;;;;5043713;28;44093;-71
2024/01/10 10:41:46;;;;;;;4.77;4.57;;;15.50;66.30;;;;;;5038600;28;43421;-71
2024/01/10 10:44:16;;;;;;;5.00;4.80;;;15.40;66.30;;;;;;5039688;28;43382;-71
2024/01/10 10:46:44;;;;;;;5.00;4.80;;;15.50;66.40;;;;;;5039343;28;43760;-71
2024/01/10 10:49:14;;;;;;;5.07;4.87;;;15.50;66.50;;;;;;5031392;28;43603;-71
2024/01/10 10:51:43;;;;;;;4.77;4.57;;;15.40;66.40;;;;;;5038149;28;44108;-71
2024/01/10 10:54:11;;;;;;;5.10;4.90;;;15.40;66.50;;;;;;5038365;28;43419;-71
2024/01/10 10:56:39;;;;;;;5.13;4.87;;;15.50;66.60;;;;;;5041695;28;43466;-71
2024/01/10 10:59:07;;;;;;;5.13;4.83;;;15.40;66.50;;;;;;5054603;27;43913;-69
2024/01/10 11:01:37;;;;;;;5.37;5.17;;;15.40;66.60;;;;;;5061668;28;43439;-70
2024/01/10 11:04:05;;;;;;;4.70;4.50;;;15.40;66.60;;;;;;5062294;28;43352;-70
2024/01/10 11:06:34;;;;;;;5.10;4.90;;;15.40;66.60;;;;;;5061976;28;43429;-69
2024/01/10 11:09:06;;;;;;;5.30;5.10;;;15.40;66.70;;;;;;5055722;28;44532;-71
2024/01/10 11:11:40;;;;;;;5.33;5.13;;;15.40;66.50;;;;;;5060747;28;43357;-70
2024/01/10 11:14:15;;;;;;;4.70;4.50;;;15.50;66.40;;;;;;5065269;28;43471;-71
2024/01/10 11:17:25;;;;;;;4.87;4.67;;;15.50;66.40;;;;;;5066458;28;43446;-70
2024/01/10 11:20:15;;;;;;;5.17;4.87;;;15.50;66.40;;;;;;5031376;28;44048;-68
2024/01/10 11:23:11;;;;;;;4.97;4.77;;;15.50;66.40;;;;;;5063349;28;43416;-69
2024/01/10 11:25:38;;;;;;;4.63;4.37;;;15.40;66.50;;;;;;5054523;28;43747;-70
2024/01/10 11:28:06;;;;;;;5.00;4.80;;;15.40;66.50;;;;;;5064122;28;43387;-70
2024/01/10 11:30:37;;;;;;;5.13;4.93;;;15.40;66.50;;;;;;5071863;28;43880;-70
2024/01/10 11:33:21;;;;;;;4.97;4.77;;;15.40;66.50;;;;;;5061250;27;43325;-70
2024/01/10 11:36:13;;;;;;;4.93;4.73;;;15.40;66.60;;;;;;5065046;27;43477;-68
2024/01/10 11:38:50;;;;;;;4.83;4.63;;;15.40;66.60;;;;;;5057931;28;43677;-69
2024/01/10 11:41:22;;;;;;;4.90;4.70;;;15.40;66.60;;;;;;5067190;27;43602;-68
2024/01/10 11:44:28;;;;;;;5.20;4.90;;;15.40;66.60;;;;;;5076964;27;43351;-70
2024/01/10 11:46:57;;;;;;;5.00;4.80;;;15.40;66.70;;;;;;5065791;28;43411;-69
2024/01/10 11:49:27;;;;;;;5.50;5.30;;;15.50;67.20;;;;;;5067805;28;43382;-69
2024/01/10 11:51:56;;;;;;;4.60;4.40;;;15.50;66.10;;;;;;5064344;27;43596;-69
2024/01/10 11:54:46;;;;;;;5.17;4.87;;;15.60;66.20;;;;;;5066511;27;44708;-69
2024/01/10 11:57:19;;;;;;;5.27;5.07;;;15.50;66.20;;;;;;5062117;27;43456;-68
2024/01/10 11:59:49;;;;;;;5.20;4.90;;;15.50;66.30;;;;;;5065379;28;43421;-69
2024/01/10 12:02:17;;;;;;;4.90;4.70;;;15.50;66.30;;;;;;5073589;27;45395;-69
2024/01/10 12:04:47;;;;;;;4.97;4.80;;;15.50;66.40;;;;;;5076562;27;43351;-69
2024/01/10 12:07:16;;;;;;;4.57;4.37;;;15.50;66.40;;;;;;5070079;27;44044;-71
2024/01/10 12:09:45;;;;;;;4.97;4.77;;;15.50;67.20;;;;;;5041842;28;43448;-71
2024/01/10 12:12:13;;;;;;;4.90;4.70;;;15.50;66.50;;;;;;5053739;28;43624;-71
2024/01/10 12:14:43;;;;;;;5.17;4.97;;;15.50;66.60;;;;;;5041407;28;43520;-70
2024/01/10 12:17:11;;;;;;;5.20;5.00;;;15.40;66.70;;;;;;5040475;28;43405;-71
2024/01/10 12:19:39;;;;;;;5.30;5.00;;;15.40;66.60;;;;;;5037366;28;43943;-71
2024/01/10 12:22:08;;;;;;;4.83;4.63;;;15.40;66.60;;;;;;5044595;28;43976;-71
2024/01/10 12:24:43;;;;;;;5.13;4.83;;;15.40;66.60;;;;;;5049249;28;43979;-71
2024/01/10 12:27:13;;;;;;;5.60;5.20;;;15.40;66.60;;;;;;5044561;28;43296;-71
2024/01/10 12:29:42;;;;;;;4.90;4.70;;;15.40;66.60;;;;;;5035001;28;43447;-72
2024/01/10 12:32:11;;;;;;;5.40;5.10;;;15.40;66.60;;;;;;5041049;28;43826;-71
2024/01/10 12:34:40;;;;;;;5.10;4.90;;;15.40;66.70;;;;;;5043058;28;44322;-71
2024/01/10 12:37:11;;;;;;;4.50;4.30;;;15.40;66.70;;;;;;5028528;28;43481;-72
2024/01/10 12:39:39;;;;;;;5.17;4.97;;;15.40;66.80;;;;;;5042621;28;43495;-71
2024/01/10 12:42:08;;;;;;;5.07;4.83;;;15.40;66.50;;;;;;5032859;28;43627;-71
2024/01/10 12:44:37;;;;;;;5.10;4.90;;;15.50;66.40;;;;;;5042512;28;43358;-71
2024/01/10 12:47:05;;;;;;;5.43;5.17;;;15.50;66.30;;;;;;5042240;28;43837;-71
2024/01/10 12:49:34;;;;;;;4.97;4.77;;;15.50;66.40;;;;;;5035436;28;44249;-73
2024/01/10 12:52:02;;;;;;;5.00;4.80;;;15.50;66.50;;;;;;5041051;28;43947;-71
2024/01/10 12:54:37;;;;;;;5.20;4.90;;;15.50;66.50;;;;;;5035972;28;43451;-71
2024/01/10 12:57:06;;;;;;;4.73;4.53;;;15.50;66.70;;;;;;5042852;28;43471;-71
2024/01/10 12:59:34;;;;;;;5.10;4.90;;;15.50;66.60;;;;;;5036862;28;44010;-71